sensor_id;sensor_type;location;lat;lon;timestamp;pressure;altitude;pressure_sealevel;temperature;humidity
25510;BME280;13413;52.336;21.200;2023-01-26T00:02:44;101404.09;;;4.01;62.10
25510;BME280;13413;52.336;21.200;2023-01-26T00:05:37;101408.11;;;3.97;62.17
25510;BME280;13413;52.336;21.200;2023-01-26T00:14:02;101403.52;;;3.99;62.26
25510;BME280;13413;52.336;21.200;2023-01-26T00:16:56;101399.81;;;4.07;62.46
25510;BME280;13413;52.336;21.200;2023-01-26T00:19:50;101399.05;;;4.21;62.36
25510;BME280;13413;52.336;21.200;2023-01-26T00:22:43;101392.77;;;4.30;62.31
25510;BME280;13413;52.336;21.200;2023-01-26T00:25:54;101392.61;;;4.37;62.23
25510;BME280;13413;52.336;21.200;2023-01-26T00:28:49;101385.47;;;4.39;62.08
25510;BME280;13413;52.336;21.200;2023-01-26T00:31:43;101387.44;;;4.38;62.06
25510;BME280;13413;52.336;21.200;2023-01-26T00:34:51;101385.70;;;4.40;61.97
25510;BME280;13413;52.336;21.200;2023-01-26T00:37:45;101385.10;;;4.37;61.81
25510;BME280;13413;52.336;21.200;2023-01-26T00:40:39;101386.21;;;4.33;62.05
25510;BME280;13413;52.336;21.200;2023-01-26T00:43:32;101381.02;;;4.35;62.23
25510;BME280;13413;52.336;21.200;2023-01-26T00:46:26;101381.73;;;4.33;61.93
25510;BME280;13413;52.336;21.200;2023-01-26T00:49:19;101375.45;;;4.22;62.20
25510;BME280;13413;52.336;21.200;2023-01-26T00:52:13;101370.70;;;4.15;62.09
25510;BME280;13413;52.336;21.200;2023-01-26T00:55:08;101366.45;;;4.18;62.39
25510;BME280;13413;52.336;21.200;2023-01-26T00:58:04;101362.84;;;4.17;62.35
25510;BME280;13413;52.336;21.200;2023-01-26T01:00:58;101363.96;;;4.12;62.27
25510;BME280;13413;52.336;21.200;2023-01-26T01:03:53;101372.26;;;4.11;62.37
25510;BME280;13413;52.336;21.200;2023-01-26T01:06:47;101367.16;;;4.11;62.36
25510;BME280;13413;52.336;21.200;2023-01-26T01:09:41;101364.14;;;4.07;62.35
25510;BME280;13413;52.336;21.200;2023-01-26T01:12:35;101361.06;;;4.06;62.48
25510;BME280;13413;52.336;21.200;2023-01-26T01:15:29;101358.60;;;4.08;62.51
25510;BME280;13413;52.336;21.200;2023-01-26T01:18:23;101359.10;;;4.04;62.60
25510;BME280;13413;52.336;21.200;2023-01-26T01:21:17;101357.43;;;4.00;62.54
25510;BME280;13413;52.336;21.200;2023-01-26T01:24:11;101353.30;;;4.07;62.44
25510;BME280;13413;52.336;21.200;2023-01-26T01:27:06;101350.38;;;4.08;62.66
25510;BME280;13413;52.336;21.200;2023-01-26T01:30:00;101345.29;;;4.06;62.58
25510;BME280;13413;52.336;21.200;2023-01-26T01:32:54;101338.57;;;4.02;62.67
25510;BME280;13413;52.336;21.200;2023-01-26T01:35:57;101330.23;;;4.04;62.77
25510;BME280;13413;52.336;21.200;2023-01-26T01:38:52;101325.48;;;3.97;62.65
25510;BME280;13413;52.336;21.200;2023-01-26T01:41:46;101324.52;;;3.96;62.74
25510;BME280;13413;52.336;21.200;2023-01-26T01:44:41;101317.16;;;3.93;63.11
25510;BME280;13413;52.336;21.200;2023-01-26T01:47:36;101312.88;;;3.90;62.81
25510;BME280;13413;52.336;21.200;2023-01-26T01:50:33;101308.31;;;3.93;62.89
25510;BME280;13413;52.336;21.200;2023-01-26T01:53:34;101304.68;;;3.97;62.74
25510;BME280;13413;52.336;21.200;2023-01-26T01:56:32;101296.65;;;3.99;62.85
25510;BME280;13413;52.336;21.200;2023-01-26T01:59:30;101293.31;;;3.99;63.01
25510;BME280;13413;52.336;21.200;2023-01-26T02:02:25;101286.73;;;3.98;62.91
25510;BME280;13413;52.336;21.200;2023-01-26T02:05:25;101289.98;;;3.97;63.04
25510;BME280;13413;52.336;21.200;2023-01-26T02:08:26;101289.83;;;3.99;63.11
25510;BME280;13413;52.336;21.200;2023-01-26T02:11:26;101289.52;;;4.01;63.03
25510;BME280;13413;52.336;21.200;2023-01-26T02:14:21;101283.98;;;4.04;63.07
25510;BME280;13413;52.336;21.200;2023-01-26T02:17:15;101284.61;;;4.03;63.07
25510;BME280;13413;52.336;21.200;2023-01-26T02:20:15;101280.64;;;4.05;63.04
25510;BME280;13413;52.336;21.200;2023-01-26T02:23:24;101275.66;;;4.08;63.17
25510;BME280;13413;52.336;21.200;2023-01-26T02:26:22;101269.00;;;4.08;62.83
25510;BME280;13413;52.336;21.200;2023-01-26T02:34:21;101265.98;;;4.02;63.12
25510;BME280;13413;52.336;21.200;2023-01-26T02:37:15;101264.52;;;3.98;63.26
25510;BME280;13413;52.336;21.200;2023-01-26T02:40:15;101261.67;;;3.99;63.21
25510;BME280;13413;52.336;21.200;2023-01-26T02:43:13;101261.31;;;4.01;63.36
25510;BME280;13413;52.336;21.200;2023-01-26T02:46:07;101260.48;;;3.98;63.31
25510;BME280;13413;52.336;21.200;2023-01-26T02:49:02;101257.67;;;3.93;63.45
25510;BME280;13413;52.336;21.200;2023-01-26T02:51:55;101254.86;;;3.91;63.53
25510;BME280;13413;52.336;21.200;2023-01-26T02:54:49;101248.98;;;3.95;63.61
25510;BME280;13413;52.336;21.200;2023-01-26T02:57:44;101248.51;;;3.99;63.31
25510;BME280;13413;52.336;21.200;2023-01-26T03:00:38;101241.73;;;4.03;63.40
25510;BME280;13413;52.336;21.200;2023-01-26T03:03:33;101239.48;;;3.96;63.58
25510;BME280;13413;52.336;21.200;2023-01-26T03:06:27;101231.30;;;3.95;63.46
25510;BME280;13413;52.336;21.200;2023-01-26T03:09:20;101225.20;;;3.95;63.41
25510;BME280;13413;52.336;21.200;2023-01-26T03:12:14;101224.70;;;3.95;63.67
25510;BME280;13413;52.336;21.200;2023-01-26T03:15:10;101218.40;;;3.97;63.54
25510;BME280;13413;52.336;21.200;2023-01-26T03:21:01;101217.77;;;4.00;63.63
25510;BME280;13413;52.336;21.200;2023-01-26T03:23:55;101211.29;;;3.98;63.69
25510;BME280;13413;52.336;21.200;2023-01-26T03:26:49;101209.04;;;3.96;63.89
25510;BME280;13413;52.336;21.200;2023-01-26T03:29:44;101201.20;;;3.98;63.73
25510;BME280;13413;52.336;21.200;2023-01-26T03:39:17;101190.27;;;4.03;63.89
25510;BME280;13413;52.336;21.200;2023-01-26T03:42:31;101192.66;;;4.02;63.93
25510;BME280;13413;52.336;21.200;2023-01-26T03:45:25;101196.61;;;3.98;64.04
25510;BME280;13413;52.336;21.200;2023-01-26T03:48:19;101196.77;;;3.94;64.35
25510;BME280;13413;52.336;21.200;2023-01-26T03:51:13;101200.28;;;3.93;63.95
25510;BME280;13413;52.336;21.200;2023-01-26T03:54:07;101195.89;;;3.94;64.22
25510;BME280;13413;52.336;21.200;2023-01-26T03:57:01;101189.06;;;3.98;64.18
25510;BME280;13413;52.336;21.200;2023-01-26T03:59:55;101186.30;;;4.00;64.09
25510;BME280;13413;52.336;21.200;2023-01-26T04:02:49;101183.45;;;4.01;64.08
25510;BME280;13413;52.336;21.200;2023-01-26T04:05:43;101177.52;;;4.03;64.07
25510;BME280;13413;52.336;21.200;2023-01-26T04:08:37;101178.87;;;4.01;64.20
25510;BME280;13413;52.336;21.200;2023-01-26T04:11:31;101180.09;;;4.01;64.31
25510;BME280;13413;52.336;21.200;2023-01-26T04:14:25;101172.05;;;3.99;64.33
25510;BME280;13413;52.336;21.200;2023-01-26T04:17:22;101172.41;;;3.99;64.23
25510;BME280;13413;52.336;21.200;2023-01-26T04:23:23;101168.68;;;4.02;64.34
25510;BME280;13413;52.336;21.200;2023-01-26T04:26:20;101172.93;;;4.04;64.28
25510;BME280;13413;52.336;21.200;2023-01-26T04:29:16;101173.15;;;4.07;64.23
25510;BME280;13413;52.336;21.200;2023-01-26T04:32:10;101176.83;;;4.08;64.13
25510;BME280;13413;52.336;21.200;2023-01-26T04:35:05;101180.14;;;4.10;64.27
25510;BME280;13413;52.336;21.200;2023-01-26T04:38:00;101180.68;;;4.17;64.09
25510;BME280;13413;52.336;21.200;2023-01-26T04:40:55;101179.70;;;4.16;64.02
25510;BME280;13413;52.336;21.200;2023-01-26T04:43:49;101178.67;;;4.13;64.15
25510;BME280;13413;52.336;21.200;2023-01-26T04:46:43;101174.64;;;4.13;64.21
25510;BME280;13413;52.336;21.200;2023-01-26T04:49:37;101174.86;;;4.12;64.16
25510;BME280;13413;52.336;21.200;2023-01-26T04:52:31;101177.33;;;4.19;64.32
25510;BME280;13413;52.336;21.200;2023-01-26T04:55:25;101178.42;;;4.21;63.99
25510;BME280;13413;52.336;21.200;2023-01-26T04:58:20;101176.24;;;4.20;64.14
25510;BME280;13413;52.336;21.200;2023-01-26T05:01:13;101173.92;;;4.18;64.06
25510;BME280;13413;52.336;21.200;2023-01-26T05:04:09;101170.96;;;4.15;64.28
25510;BME280;13413;52.336;21.200;2023-01-26T05:07:03;101172.92;;;4.15;64.35
25510;BME280;13413;52.336;21.200;2023-01-26T05:09:57;101174.42;;;4.18;64.19
25510;BME280;13413;52.336;21.200;2023-01-26T05:12:51;101165.09;;;4.17;64.15
25510;BME280;13413;52.336;21.200;2023-01-26T05:15:45;101159.53;;;4.16;64.21
25510;BME280;13413;52.336;21.200;2023-01-26T05:18:39;101155.02;;;4.18;64.28
25510;BME280;13413;52.336;21.200;2023-01-26T05:21:33;101159.59;;;4.25;64.32
25510;BME280;13413;52.336;21.200;2023-01-26T05:27:35;101162.70;;;4.26;64.24
25510;BME280;13413;52.336;21.200;2023-01-26T05:33:37;101155.98;;;4.19;64.24
25510;BME280;13413;52.336;21.200;2023-01-26T05:39:42;101152.33;;;4.12;64.37
25510;BME280;13413;52.336;21.200;2023-01-26T05:42:35;101144.13;;;4.10;64.57
25510;BME280;13413;52.336;21.200;2023-01-26T05:45:29;101147.52;;;4.08;64.21
25510;BME280;13413;52.336;21.200;2023-01-26T05:48:23;101151.60;;;4.08;64.36
25510;BME280;13413;52.336;21.200;2023-01-26T05:59:39;101153.64;;;4.13;64.50
25510;BME280;13413;52.336;21.200;2023-01-26T06:02:34;101154.98;;;4.11;64.51
25510;BME280;13413;52.336;21.200;2023-01-26T06:05:28;101151.99;;;4.12;64.70
25510;BME280;13413;52.336;21.200;2023-01-26T06:08:22;101150.05;;;4.12;64.74
25510;BME280;13413;52.336;21.200;2023-01-26T06:11:16;101151.11;;;4.09;64.60
25510;BME280;13413;52.336;21.200;2023-01-26T06:14:10;101152.23;;;4.09;64.63
25510;BME280;13413;52.336;21.200;2023-01-26T06:17:04;101155.17;;;4.09;64.74
25510;BME280;13413;52.336;21.200;2023-01-26T06:19:58;101157.25;;;4.14;64.76
25510;BME280;13413;52.336;21.200;2023-01-26T06:22:52;101153.09;;;4.16;64.41
25510;BME280;13413;52.336;21.200;2023-01-26T06:25:46;101159.10;;;4.13;64.66
25510;BME280;13413;52.336;21.200;2023-01-26T06:29:00;101159.97;;;4.10;64.74
25510;BME280;13413;52.336;21.200;2023-01-26T06:31:55;101164.48;;;4.18;64.76
25510;BME280;13413;52.336;21.200;2023-01-26T06:34:48;101161.57;;;4.19;64.64
25510;BME280;13413;52.336;21.200;2023-01-26T06:37:42;101159.92;;;4.11;64.78
25510;BME280;13413;52.336;21.200;2023-01-26T06:40:37;101150.73;;;4.06;64.82
25510;BME280;13413;52.336;21.200;2023-01-26T06:43:31;101148.68;;;4.09;64.87
25510;BME280;13413;52.336;21.200;2023-01-26T06:46:25;101150.19;;;4.13;64.88
25510;BME280;13413;52.336;21.200;2023-01-26T06:49:19;101146.80;;;4.11;65.00
25510;BME280;13413;52.336;21.200;2023-01-26T06:52:29;101146.33;;;4.04;65.18
25510;BME280;13413;52.336;21.200;2023-01-26T06:55:29;101151.45;;;4.10;65.05
25510;BME280;13413;52.336;21.200;2023-01-26T06:58:25;101147.23;;;4.14;65.02
25510;BME280;13413;52.336;21.200;2023-01-26T07:01:20;101142.67;;;4.12;65.03
25510;BME280;13413;52.336;21.200;2023-01-26T07:04:15;101143.89;;;4.13;64.86
25510;BME280;13413;52.336;21.200;2023-01-26T07:07:08;101141.77;;;4.13;65.06
25510;BME280;13413;52.336;21.200;2023-01-26T07:10:02;101139.27;;;4.16;64.82
25510;BME280;13413;52.336;21.200;2023-01-26T07:12:56;101137.69;;;4.11;65.06
25510;BME280;13413;52.336;21.200;2023-01-26T07:15:48;101140.15;;;4.13;65.02
25510;BME280;13413;52.336;21.200;2023-01-26T07:18:43;101136.14;;;4.15;65.03
25510;BME280;13413;52.336;21.200;2023-01-26T07:21:36;101139.91;;;4.16;65.12
25510;BME280;13413;52.336;21.200;2023-01-26T07:24:31;101132.63;;;4.09;65.03
25510;BME280;13413;52.336;21.200;2023-01-26T07:27:26;101134.43;;;4.04;65.18
25510;BME280;13413;52.336;21.200;2023-01-26T07:30:20;101126.09;;;4.03;65.26
25510;BME280;13413;52.336;21.200;2023-01-26T07:33:14;101128.06;;;4.07;65.05
25510;BME280;13413;52.336;21.200;2023-01-26T07:36:09;101130.84;;;4.14;65.02
25510;BME280;13413;52.336;21.200;2023-01-26T07:39:03;101132.67;;;4.13;65.13
25510;BME280;13413;52.336;21.200;2023-01-26T07:41:57;101129.61;;;4.16;65.03
25510;BME280;13413;52.336;21.200;2023-01-26T07:44:55;101125.52;;;4.08;65.22
25510;BME280;13413;52.336;21.200;2023-01-26T07:47:49;101125.67;;;4.13;64.91
25510;BME280;13413;52.336;21.200;2023-01-26T07:50:43;101124.30;;;4.03;65.08
25510;BME280;13413;52.336;21.200;2023-01-26T07:53:37;101124.88;;;4.14;65.01
25510;BME280;13413;52.336;21.200;2023-01-26T07:56:32;101130.16;;;4.23;65.03
25510;BME280;13413;52.336;21.200;2023-01-26T07:59:26;101129.59;;;4.21;64.85
25510;BME280;13413;52.336;21.200;2023-01-26T08:02:21;101130.75;;;4.29;64.85
25510;BME280;13413;52.336;21.200;2023-01-26T08:05:15;101129.55;;;4.29;64.47
25510;BME280;13413;52.336;21.200;2023-01-26T08:08:09;101125.49;;;4.25;64.43
25510;BME280;13413;52.336;21.200;2023-01-26T08:11:01;101118.42;;;4.30;64.31
25510;BME280;13413;52.336;21.200;2023-01-26T08:19:36;101120.08;;;4.38;63.74
25510;BME280;13413;52.336;21.200;2023-01-26T08:22:30;101120.90;;;4.43;63.76
25510;BME280;13413;52.336;21.200;2023-01-26T08:25:24;101113.48;;;4.46;63.74
25510;BME280;13413;52.336;21.200;2023-01-26T08:28:18;101109.92;;;4.42;63.36
25510;BME280;13413;52.336;21.200;2023-01-26T08:31:13;101113.63;;;4.49;63.68
25510;BME280;13413;52.336;21.200;2023-01-26T08:34:07;101114.00;;;4.48;63.26
25510;BME280;13413;52.336;21.200;2023-01-26T08:37:02;101113.79;;;4.45;63.05
25510;BME280;13413;52.336;21.200;2023-01-26T08:39:57;101115.06;;;4.44;63.00
25510;BME280;13413;52.336;21.200;2023-01-26T08:42:49;101111.50;;;4.43;63.00
25510;BME280;13413;52.336;21.200;2023-01-26T08:45:47;101113.84;;;4.42;62.69
25510;BME280;13413;52.336;21.200;2023-01-26T08:48:41;101114.27;;;4.45;62.64
25510;BME280;13413;52.336;21.200;2023-01-26T08:51:35;101114.16;;;4.26;62.53
25510;BME280;13413;52.336;21.200;2023-01-26T08:54:29;101123.14;;;4.41;62.42
25510;BME280;13413;52.336;21.200;2023-01-26T08:57:41;101128.21;;;4.50;62.15
25510;BME280;13413;52.336;21.200;2023-01-26T09:00:35;101133.17;;;4.59;62.32
25510;BME280;13413;52.336;21.200;2023-01-26T09:03:30;101133.29;;;4.59;62.10
25510;BME280;13413;52.336;21.200;2023-01-26T09:06:24;101134.52;;;4.59;62.11
25510;BME280;13413;52.336;21.200;2023-01-26T09:09:18;101138.48;;;4.47;61.99
25510;BME280;13413;52.336;21.200;2023-01-26T09:12:11;101141.09;;;4.47;61.90
25510;BME280;13413;52.336;21.200;2023-01-26T09:15:07;101143.02;;;4.42;61.62
25510;BME280;13413;52.336;21.200;2023-01-26T09:18:00;101143.41;;;4.60;61.86
25510;BME280;13413;52.336;21.200;2023-01-26T09:30:01;101145.30;;;4.54;61.18
25510;BME280;13413;52.336;21.200;2023-01-26T09:33:11;101143.64;;;4.61;61.09
25510;BME280;13413;52.336;21.200;2023-01-26T09:36:07;101136.95;;;4.62;61.01
25510;BME280;13413;52.336;21.200;2023-01-26T09:39:01;101128.45;;;4.70;61.02
25510;BME280;13413;52.336;21.200;2023-01-26T09:42:09;101134.59;;;4.75;61.03
25510;BME280;13413;52.336;21.200;2023-01-26T09:45:17;101132.91;;;4.69;60.90
25510;BME280;13413;52.336;21.200;2023-01-26T09:48:20;101122.06;;;4.73;60.79
25510;BME280;13413;52.336;21.200;2023-01-26T09:51:19;101119.20;;;4.67;60.64
25510;BME280;13413;52.336;21.200;2023-01-26T09:54:21;101119.09;;;4.73;60.73
25510;BME280;13413;52.336;21.200;2023-01-26T09:57:19;101116.77;;;4.67;60.53
25510;BME280;13413;52.336;21.200;2023-01-26T10:00:20;101115.00;;;4.63;60.46
25510;BME280;13413;52.336;21.200;2023-01-26T10:03:19;101113.29;;;4.62;60.73
25510;BME280;13413;52.336;21.200;2023-01-26T10:06:22;101108.79;;;4.63;60.45
25510;BME280;13413;52.336;21.200;2023-01-26T10:09:22;101108.77;;;4.55;60.56
25510;BME280;13413;52.336;21.200;2023-01-26T10:12:20;101108.95;;;4.57;60.19
25510;BME280;13413;52.336;21.200;2023-01-26T10:15:27;101095.22;;;4.56;60.14
25510;BME280;13413;52.336;21.200;2023-01-26T10:18:27;101094.40;;;4.55;60.24
25510;BME280;13413;52.336;21.200;2023-01-26T10:21:27;101092.03;;;4.58;60.19
25510;BME280;13413;52.336;21.200;2023-01-26T10:24:23;101087.08;;;4.37;60.03
25510;BME280;13413;52.336;21.200;2023-01-26T10:27:16;101084.75;;;4.46;60.17
25510;BME280;13413;52.336;21.200;2023-01-26T10:30:16;101082.12;;;4.55;59.89
25510;BME280;13413;52.336;21.200;2023-01-26T10:33:17;101077.75;;;4.53;59.89
25510;BME280;13413;52.336;21.200;2023-01-26T10:36:13;101076.02;;;4.53;59.59
25510;BME280;13413;52.336;21.200;2023-01-26T10:39:07;101069.36;;;4.59;59.70
25510;BME280;13413;52.336;21.200;2023-01-26T10:42:03;101063.85;;;4.65;59.85
25510;BME280;13413;52.336;21.200;2023-01-26T10:44:59;101065.60;;;4.60;59.74
25510;BME280;13413;52.336;21.200;2023-01-26T10:48:12;101063.41;;;4.64;59.76
25510;BME280;13413;52.336;21.200;2023-01-26T10:51:24;101060.38;;;4.56;59.57
25510;BME280;13413;52.336;21.200;2023-01-26T10:54:23;101057.31;;;4.59;59.42
25510;BME280;13413;52.336;21.200;2023-01-26T10:57:25;101051.48;;;4.71;59.42
25510;BME280;13413;52.336;21.200;2023-01-26T11:00:25;101041.70;;;4.68;59.09
25510;BME280;13413;52.336;21.200;2023-01-26T11:03:20;101039.49;;;4.70;59.19
25510;BME280;13413;52.336;21.200;2023-01-26T11:06:19;101035.39;;;4.68;59.10
25510;BME280;13413;52.336;21.200;2023-01-26T11:09:19;101031.63;;;4.69;59.13
25510;BME280;13413;52.336;21.200;2023-01-26T11:12:18;101028.64;;;4.69;58.89
25510;BME280;13413;52.336;21.200;2023-01-26T11:15:17;101029.03;;;4.64;58.89
25510;BME280;13413;52.336;21.200;2023-01-26T11:18:19;101019.11;;;4.65;58.97
25510;BME280;13413;52.336;21.200;2023-01-26T11:21:36;101021.67;;;4.55;58.98
25510;BME280;13413;52.336;21.200;2023-01-26T11:24:37;101017.85;;;4.57;58.96
25510;BME280;13413;52.336;21.200;2023-01-26T11:27:41;101016.36;;;4.69;58.96
25510;BME280;13413;52.336;21.200;2023-01-26T11:30:46;101011.21;;;4.70;58.79
25510;BME280;13413;52.336;21.200;2023-01-26T11:33:48;101007.36;;;4.63;58.76
25510;BME280;13413;52.336;21.200;2023-01-26T11:36:50;101002.75;;;4.64;58.74
25510;BME280;13413;52.336;21.200;2023-01-26T11:39:45;100998.39;;;4.60;58.90
25510;BME280;13413;52.336;21.200;2023-01-26T11:42:40;100997.73;;;4.73;58.68
25510;BME280;13413;52.336;21.200;2023-01-26T11:51:05;100997.20;;;4.59;58.56
25510;BME280;13413;52.336;21.200;2023-01-26T11:54:21;100992.77;;;4.60;58.67
25510;BME280;13413;52.336;21.200;2023-01-26T11:57:23;100984.23;;;4.59;58.43
25510;BME280;13413;52.336;21.200;2023-01-26T12:03:19;100979.77;;;4.67;58.55
25510;BME280;13413;52.336;21.200;2023-01-26T12:06:18;100981.45;;;4.64;58.17
25510;BME280;13413;52.336;21.200;2023-01-26T12:09:16;100981.48;;;4.61;58.60
25510;BME280;13413;52.336;21.200;2023-01-26T12:12:14;100977.08;;;4.59;58.19
25510;BME280;13413;52.336;21.200;2023-01-26T12:15:14;100973.09;;;4.67;58.24
25510;BME280;13413;52.336;21.200;2023-01-26T12:18:15;100973.74;;;4.68;58.10
25510;BME280;13413;52.336;21.200;2023-01-26T12:21:12;100975.21;;;4.72;58.20
25510;BME280;13413;52.336;21.200;2023-01-26T12:24:13;100972.64;;;4.68;58.04
25510;BME280;13413;52.336;21.200;2023-01-26T12:27:15;100970.70;;;4.66;58.03
25510;BME280;13413;52.336;21.200;2023-01-26T12:30:25;100970.13;;;4.71;58.06
25510;BME280;13413;52.336;21.200;2023-01-26T12:33:20;100969.54;;;4.70;57.80
25510;BME280;13413;52.336;21.200;2023-01-26T12:36:15;100965.02;;;4.72;57.76
25510;BME280;13413;52.336;21.200;2023-01-26T12:39:17;100967.29;;;4.72;57.82
25510;BME280;13413;52.336;21.200;2023-01-26T12:42:21;100965.05;;;4.72;57.90
25510;BME280;13413;52.336;21.200;2023-01-26T12:45:22;100963.50;;;4.78;57.98
25510;BME280;13413;52.336;21.200;2023-01-26T12:48:20;100963.61;;;4.72;57.90
25510;BME280;13413;52.336;21.200;2023-01-26T12:51:20;100967.84;;;4.70;58.03
25510;BME280;13413;52.336;21.200;2023-01-26T12:54:22;100967.84;;;4.80;57.89
25510;BME280;13413;52.336;21.200;2023-01-26T12:57:22;100967.98;;;4.85;57.91
25510;BME280;13413;52.336;21.200;2023-01-26T13:00:22;100963.23;;;4.81;57.68
25510;BME280;13413;52.336;21.200;2023-01-26T13:03:20;100966.35;;;4.79;57.86
25510;BME280;13413;52.336;21.200;2023-01-26T13:06:22;100963.98;;;4.76;57.51
25510;BME280;13413;52.336;21.200;2023-01-26T13:09:22;100955.66;;;4.71;57.79
25510;BME280;13413;52.336;21.200;2023-01-26T13:12:46;100952.98;;;4.74;57.79
25510;BME280;13413;52.336;21.200;2023-01-26T13:15:41;100956.68;;;4.82;57.96
25510;BME280;13413;52.336;21.200;2023-01-26T13:18:49;100958.02;;;4.89;57.88
25510;BME280;13413;52.336;21.200;2023-01-26T13:21:45;100957.08;;;4.94;57.89
25510;BME280;13413;52.336;21.200;2023-01-26T13:24:46;100954.54;;;4.87;57.68
25510;BME280;13413;52.336;21.200;2023-01-26T13:27:45;100953.00;;;4.78;57.66
25510;BME280;13413;52.336;21.200;2023-01-26T13:30:46;100951.77;;;4.74;57.87
25510;BME280;13413;52.336;21.200;2023-01-26T13:33:41;100955.16;;;4.70;57.84
25510;BME280;13413;52.336;21.200;2023-01-26T13:36:40;100954.15;;;4.69;57.90
25510;BME280;13413;52.336;21.200;2023-01-26T13:39:37;100953.68;;;4.69;57.88
25510;BME280;13413;52.336;21.200;2023-01-26T13:42:37;100953.23;;;4.75;57.67
25510;BME280;13413;52.336;21.200;2023-01-26T13:45:37;100944.25;;;4.75;57.79
25510;BME280;13413;52.336;21.200;2023-01-26T13:48:42;100948.24;;;4.74;57.91
25510;BME280;13413;52.336;21.200;2023-01-26T13:51:39;100946.63;;;4.76;57.87
25510;BME280;13413;52.336;21.200;2023-01-26T13:54:36;100948.67;;;4.81;57.94
25510;BME280;13413;52.336;21.200;2023-01-26T13:57:34;100945.33;;;4.79;57.87
25510;BME280;13413;52.336;21.200;2023-01-26T14:00:27;100943.91;;;4.73;57.71
25510;BME280;13413;52.336;21.200;2023-01-26T14:03:20;100939.30;;;4.69;57.78
25510;BME280;13413;52.336;21.200;2023-01-26T14:10:51;100937.67;;;4.68;58.03
25510;BME280;13413;52.336;21.200;2023-01-26T14:13:49;100938.45;;;4.74;58.00
25510;BME280;13413;52.336;21.200;2023-01-26T14:16:43;100939.52;;;4.73;57.85
25510;BME280;13413;52.336;21.200;2023-01-26T14:19:41;100934.70;;;4.74;57.99
25510;BME280;13413;52.336;21.200;2023-01-26T14:22:36;100933.05;;;4.66;57.83
25510;BME280;13413;52.336;21.200;2023-01-26T14:25:29;100933.20;;;4.71;58.13
25510;BME280;13413;52.336;21.200;2023-01-26T14:28:27;100932.72;;;4.75;58.28
25510;BME280;13413;52.336;21.200;2023-01-26T14:31:24;100933.55;;;4.80;57.98
25510;BME280;13413;52.336;21.200;2023-01-26T14:34:21;100930.48;;;4.75;58.01
25510;BME280;13413;52.336;21.200;2023-01-26T14:37:18;100926.58;;;4.64;58.02
25510;BME280;13413;52.336;21.200;2023-01-26T14:40:19;100924.23;;;4.67;58.06
25510;BME280;13413;52.336;21.200;2023-01-26T14:43:15;100929.29;;;4.61;57.92
25510;BME280;13413;52.336;21.200;2023-01-26T14:46:14;100931.13;;;4.62;58.12
25510;BME280;13413;52.336;21.200;2023-01-26T14:49:12;100933.05;;;4.58;58.22
25510;BME280;13413;52.336;21.200;2023-01-26T14:52:17;100928.53;;;4.46;58.20
25510;BME280;13413;52.336;21.200;2023-01-26T14:55:18;100934.48;;;4.44;58.03
25510;BME280;13413;52.336;21.200;2023-01-26T14:58:21;100933.80;;;4.44;58.07
25510;BME280;13413;52.336;21.200;2023-01-26T15:01:23;100927.82;;;4.42;58.05
25510;BME280;13413;52.336;21.200;2023-01-26T15:04:23;100927.72;;;4.46;58.16
25510;BME280;13413;52.336;21.200;2023-01-26T15:07:36;100926.67;;;4.50;58.18
25510;BME280;13413;52.336;21.200;2023-01-26T15:10:39;100932.08;;;4.63;58.15
25510;BME280;13413;52.336;21.200;2023-01-26T15:13:34;100928.66;;;4.62;57.97
25510;BME280;13413;52.336;21.200;2023-01-26T15:16:28;100923.81;;;4.66;58.06
25510;BME280;13413;52.336;21.200;2023-01-26T15:19:25;100921.73;;;4.61;57.90
25510;BME280;13413;52.336;21.200;2023-01-26T15:22:24;100921.70;;;4.64;58.14
25510;BME280;13413;52.336;21.200;2023-01-26T15:25:21;100920.20;;;4.65;57.95
25510;BME280;13413;52.336;21.200;2023-01-26T15:28:19;100915.34;;;4.56;57.82
25510;BME280;13413;52.336;21.200;2023-01-26T15:31:22;100914.05;;;4.54;58.03
25510;BME280;13413;52.336;21.200;2023-01-26T15:34:32;100911.20;;;4.55;58.01
25510;BME280;13413;52.336;21.200;2023-01-26T15:37:29;100912.02;;;4.56;58.05
25510;BME280;13413;52.336;21.200;2023-01-26T15:40:23;100919.55;;;4.60;58.06
25510;BME280;13413;52.336;21.200;2023-01-26T15:43:19;100921.21;;;4.63;58.04
25510;BME280;13413;52.336;21.200;2023-01-26T15:46:14;100922.49;;;4.67;57.98
25510;BME280;13413;52.336;21.200;2023-01-26T15:49:08;100923.34;;;4.63;57.99
25510;BME280;13413;52.336;21.200;2023-01-26T15:54:55;100928.09;;;4.63;58.10
25510;BME280;13413;52.336;21.200;2023-01-26T15:57:49;100929.80;;;4.70;58.00
25510;BME280;13413;52.336;21.200;2023-01-26T16:00:43;100926.60;;;4.75;57.99
25510;BME280;13413;52.336;21.200;2023-01-26T16:03:36;100921.02;;;4.75;58.06
25510;BME280;13413;52.336;21.200;2023-01-26T16:06:32;100922.00;;;4.73;57.91
25510;BME280;13413;52.336;21.200;2023-01-26T16:09:26;100928.45;;;4.69;58.12
25510;BME280;13413;52.336;21.200;2023-01-26T16:12:21;100929.83;;;4.61;57.87
25510;BME280;13413;52.336;21.200;2023-01-26T16:15:24;100929.85;;;4.58;58.10
25510;BME280;13413;52.336;21.200;2023-01-26T16:18:20;100933.84;;;4.54;58.06
25510;BME280;13413;52.336;21.200;2023-01-26T16:21:17;100939.15;;;4.56;58.16
25510;BME280;13413;52.336;21.200;2023-01-26T16:30:10;100937.68;;;4.67;58.08
25510;BME280;13413;52.336;21.200;2023-01-26T16:33:04;100936.98;;;4.63;57.92
25510;BME280;13413;52.336;21.200;2023-01-26T16:35:58;100937.18;;;4.59;57.93
25510;BME280;13413;52.336;21.200;2023-01-26T16:38:52;100933.02;;;4.60;58.30
25510;BME280;13413;52.336;21.200;2023-01-26T16:41:46;100930.05;;;4.62;58.42
25510;BME280;13413;52.336;21.200;2023-01-26T16:44:40;100929.62;;;4.61;58.16